Time;durP1;ratioP1;P1;durP2;ratioP2;P2;SDS_P1;SDS_P2;PMS_P1;PMS_P2;Temp;Humidity;BMP_temperature;BMP_pressure;BME280_temperature;BME280_humidity;BME280_pressure;Samples;Min_cycle;Max_cycle;Signal;HPM_P1;HPM_P2
2022/12/25 00:00:42;;;;;;;13.45;9.15;;;23.40;99.90;;;;;;4976704;28;20711;-77
2022/12/25 00:03:13;;;;;;;13.23;9.27;;;23.60;99.90;;;;;;4978158;28;20289;-77
2022/12/25 00:05:46;;;;;;;14.32;9.73;;;23.70;99.90;;;;;;4981738;28;20288;-78
2022/12/25 00:08:16;;;;;;;13.93;9.20;;;23.80;99.90;;;;;;4983556;28;20200;-79
2022/12/25 00:10:47;;;;;;;13.60;9.38;;;24.10;99.90;;;;;;4978271;28;20584;-77
2022/12/25 00:13:18;;;;;;;14.80;9.55;;;24.30;99.90;;;;;;4981965;28;20534;-78
2022/12/25 00:15:49;;;;;;;11.90;9.35;;;24.40;99.90;;;;;;4977662;28;20201;-78
2022/12/25 00:18:19;;;;;;;14.15;9.57;;;24.60;99.90;;;;;;4973757;28;20227;-78
2022/12/25 00:21:01;;;;;;;13.57;9.60;;;24.80;99.90;;;;;;4975834;28;20231;-78
2022/12/25 00:23:32;;;;;;;13.35;9.20;;;24.90;99.90;;;;;;4980655;28;20195;-78
2022/12/25 00:26:07;;;;;;;13.20;8.68;;;24.90;99.90;;;;;;4977064;28;20202;-78
2022/12/25 00:28:38;;;;;;;12.93;9.15;;;24.90;99.90;;;;;;4977968;28;20199;-79
2022/12/25 00:31:10;;;;;;;14.35;9.23;;;25.00;99.90;;;;;;4970059;28;20307;-78
2022/12/25 00:33:41;;;;;;;13.73;9.23;;;25.00;99.90;;;;;;4988061;28;20192;-78
2022/12/25 00:36:16;;;;;;;13.95;9.15;;;25.10;99.90;;;;;;4980171;28;20739;-78
2022/12/25 00:38:47;;;;;;;13.32;9.07;;;25.10;99.90;;;;;;4975482;28;20216;-78
2022/12/25 00:42:17;;;;;;;14.35;9.57;;;25.30;99.90;;;;;;4975435;28;20196;-78
2022/12/25 00:44:13;;;;;;;14.25;9.10;;;25.40;99.90;;;;;;4978641;28;20258;-78
2022/12/25 00:46:44;;;;;;;13.98;9.20;;;25.60;99.90;;;;;;4981568;28;20200;-78
2022/12/25 00:49:15;;;;;;;13.43;9.13;;;25.60;99.90;;;;;;4992555;28;20275;-78
2022/12/25 00:51:47;;;;;;;15.95;9.82;;;25.70;99.90;;;;;;4993700;28;20299;-79
2022/12/25 00:54:18;;;;;;;13.15;9.73;;;25.70;99.90;;;;;;4993480;28;20616;-77
2022/12/25 00:56:49;;;;;;;15.30;10.00;;;25.60;99.90;;;;;;4993818;28;20655;-77
2022/12/25 00:59:20;;;;;;;14.55;10.48;;;25.60;99.90;;;;;;4993820;28;20274;-78
2022/12/25 01:01:51;;;;;;;13.32;9.90;;;25.80;99.90;;;;;;4993290;28;20192;-78
2022/12/25 01:04:21;;;;;;;15.85;10.55;;;26.00;99.90;;;;;;4993565;28;20195;-76
2022/12/25 01:06:54;;;;;;;16.23;11.13;;;26.30;99.90;;;;;;4993918;28;20257;-78
2022/12/25 01:12:11;;;;;;;11.20;8.45;;;26.90;99.90;;;;;;4983916;28;20206;-78
2022/12/25 01:14:42;;;;;;;14.27;9.30;;;27.20;99.90;;;;;;4990870;28;20274;-77
2022/12/25 01:17:13;;;;;;;11.70;7.97;;;27.30;99.90;;;;;;4992594;28;20537;-78
2022/12/25 01:19:44;;;;;;;11.40;8.75;;;27.40;99.90;;;;;;4993253;28;20275;-77
2022/12/25 01:22:17;;;;;;;13.02;8.75;;;27.30;99.90;;;;;;4993698;28;20271;-78
2022/12/25 01:24:48;;;;;;;27.13;18.10;;;27.40;99.90;;;;;;4993345;28;20271;-78
2022/12/25 01:27:19;;;;;;;17.27;11.07;;;27.50;99.90;;;;;;4993311;28;20420;-78
2022/12/25 01:29:50;;;;;;;23.05;15.45;;;27.80;99.90;;;;;;4993120;28;20275;-77
2022/12/25 01:32:21;;;;;;;12.40;9.07;;;28.00;99.90;;;;;;4992964;28;20668;-77
2022/12/25 01:34:54;;;;;;;14.88;9.05;;;28.00;99.90;;;;;;4993082;28;20200;-78
2022/12/25 01:37:26;;;;;;;12.82;8.63;;;27.90;99.90;;;;;;4991930;28;20192;-80
2022/12/25 01:39:58;;;;;;;11.82;7.90;;;28.10;99.90;;;;;;4993478;28;20190;-78
2022/12/25 01:42:29;;;;;;;13.35;8.18;;;28.40;99.90;;;;;;4992087;28;20279;-78
2022/12/25 01:45:33;;;;;;;11.80;7.97;;;28.50;99.90;;;;;;4992698;28;20246;-76
2022/12/25 01:48:08;;;;;;;9.30;7.57;;;28.60;99.90;;;;;;4981370;28;20227;-76
2022/12/25 01:50:42;;;;;;;11.52;8.13;;;28.50;99.90;;;;;;4981476;28;20307;-77
2022/12/25 01:53:16;;;;;;;10.95;7.22;;;28.50;99.90;;;;;;4986107;28;20191;-77
2022/12/25 01:55:51;;;;;;;12.93;7.75;;;28.50;99.90;;;;;;4981617;28;20192;-77
2022/12/25 01:58:23;;;;;;;10.77;7.85;;;28.50;99.90;;;;;;4982699;28;20195;-78
2022/12/25 02:00:54;;;;;;;10.95;8.18;;;28.70;99.90;;;;;;4988337;28;20192;-78
2022/12/25 02:03:25;;;;;;;11.35;8.77;;;28.80;99.90;;;;;;4982705;28;20184;-76
2022/12/25 02:06:02;;;;;;;17.08;13.18;;;28.90;99.90;;;;;;4988336;28;20187;-79
2022/12/25 02:08:40;;;;;;;32.22;24.90;;;29.00;99.90;;;;;;4978624;28;20275;-77
2022/12/25 02:11:55;;;;;;;19.65;13.48;;;29.30;99.90;;;;;;4967743;28;20301;-80
2022/12/25 02:14:04;;;;;;;11.88;8.52;;;29.40;99.90;;;;;;4983939;28;20199;-76
2022/12/25 02:16:37;;;;;;;11.60;8.70;;;29.40;99.90;;;;;;4985205;28;20704;-78
2022/12/25 02:19:21;;;;;;;11.90;8.95;;;29.50;99.90;;;;;;4971789;28;20263;-75
2022/12/25 02:22:08;;;;;;;11.68;8.65;;;29.60;99.90;;;;;;4981257;28;20726;-77
2022/12/25 02:25:00;;;;;;;11.27;9.52;;;29.60;99.90;;;;;;4984627;28;20200;-79
2022/12/25 02:28:01;;;;;;;14.00;10.18;;;29.50;99.90;;;;;;4970959;28;20706;-75
2022/12/25 02:30:40;;;;;;;12.75;9.90;;;29.20;99.90;;;;;;4960150;28;20223;-79
2022/12/25 02:36:08;;;;;;;14.98;9.77;;;29.30;99.90;;;;;;4987454;28;20210;-77
2022/12/25 02:39:56;;;;;;;11.90;9.57;;;29.50;99.90;;;;;;4979604;28;20199;-76
2022/12/25 02:41:37;;;;;;;12.63;10.02;;;29.30;99.90;;;;;;4983499;28;20275;-80
2022/12/25 03:07:03;;;;;;;11.70;8.77;;;28.70;99.90;;;;;;4981050;28;20336;-78
2022/12/25 03:12:36;;;;;;;13.10;9.40;;;28.70;99.90;;;;;;4979005;28;20338;-78
2022/12/25 03:17:57;;;;;;;11.45;9.38;;;28.70;99.90;;;;;;4990996;28;20248;-79
2022/12/25 03:28:54;;;;;;;9.63;8.57;;;28.40;99.90;;;;;;4976362;28;20231;-76
2022/12/25 03:31:30;;;;;;;13.48;9.50;;;28.40;99.90;;;;;;4976048;28;20551;-79
2022/12/25 04:36:19;;;;;;;13.60;8.93;;;26.90;99.90;;;;;;4942494;28;20207;-79
2022/12/25 04:38:49;;;;;;;11.85;9.00;;;26.80;99.90;;;;;;4974416;28;20279;-78
2022/12/25 04:41:21;;;;;;;12.88;8.85;;;26.80;99.90;;;;;;4974989;28;20287;-78
2022/12/25 04:43:55;;;;;;;10.50;9.00;;;26.80;99.90;;;;;;4991686;28;20206;-82
2022/12/25 04:46:26;;;;;;;13.15;10.20;;;26.80;99.90;;;;;;4993926;28;20278;-79
2022/12/25 04:48:57;;;;;;;12.13;9.57;;;26.80;99.90;;;;;;4993718;28;20762;-78
2022/12/25 04:51:29;;;;;;;12.32;9.25;;;26.80;99.90;;;;;;4993326;28;20223;-76
2022/12/25 04:54:02;;;;;;;12.68;9.05;;;26.90;99.90;;;;;;4993675;28;20279;-78
2022/12/25 04:56:33;;;;;;;11.20;9.10;;;26.90;99.90;;;;;;4993959;28;20318;-78
2022/12/25 04:59:09;;;;;;;11.23;8.75;;;26.80;99.90;;;;;;4993871;28;20198;-78
2022/12/25 05:01:40;;;;;;;11.73;9.18;;;26.80;99.90;;;;;;4994048;28;20191;-80
2022/12/25 05:04:10;;;;;;;11.20;9.15;;;26.70;99.90;;;;;;4993873;28;20195;-79
2022/12/25 05:06:41;;;;;;;12.63;9.23;;;26.70;99.90;;;;;;4993629;28;20658;-85
2022/12/25 05:09:13;;;;;;;10.65;8.98;;;26.80;99.90;;;;;;4993643;28;20200;-79
2022/12/25 05:11:46;;;;;;;12.60;8.43;;;26.80;99.90;;;;;;4993604;28;20219;-78
2022/12/25 05:14:19;;;;;;;10.77;8.48;;;26.70;99.90;;;;;;4993749;28;20715;-78
2022/12/25 05:16:49;;;;;;;14.00;8.93;;;26.60;99.90;;;;;;4993708;28;20199;-79
2022/12/25 05:19:20;;;;;;;10.18;8.45;;;26.70;99.90;;;;;;4993694;28;20294;-79
2022/12/25 05:21:51;;;;;;;11.68;7.75;;;26.80;99.90;;;;;;4993619;28;20188;-79
2022/12/25 05:24:26;;;;;;;10.43;7.80;;;26.80;99.90;;;;;;4993682;28;20192;-81
2022/12/25 05:26:57;;;;;;;8.50;7.32;;;26.60;99.90;;;;;;4993550;28;20710;-80
2022/12/25 05:29:30;;;;;;;10.23;7.15;;;26.50;99.90;;;;;;4993653;28;20284;-77
2022/12/25 05:32:01;;;;;;;9.38;7.25;;;26.50;99.90;;;;;;4993529;28;20216;-79
2022/12/25 05:34:31;;;;;;;8.60;7.30;;;26.40;99.90;;;;;;4993499;28;20282;-78
2022/12/25 05:37:02;;;;;;;10.38;7.45;;;26.40;99.90;;;;;;4993212;28;20202;-79
2022/12/25 05:39:33;;;;;;;8.63;7.18;;;26.20;99.90;;;;;;4993580;28;20623;-79
2022/12/25 05:42:04;;;;;;;9.52;6.82;;;26.20;99.90;;;;;;4993339;28;20187;-79
2022/12/25 05:44:40;;;;;;;10.05;7.50;;;26.20;99.90;;;;;;4993200;28;20270;-80
2022/12/25 05:47:10;;;;;;;9.90;7.10;;;26.30;99.90;;;;;;4991352;28;20234;-80
2022/12/25 05:49:41;;;;;;;9.93;6.60;;;26.20;99.90;;;;;;4982459;28;20196;-79
2022/12/25 05:52:12;;;;;;;9.93;6.50;;;26.30;99.90;;;;;;4993185;28;20223;-79
2022/12/25 05:54:43;;;;;;;11.27;6.40;;;26.30;99.90;;;;;;4977726;28;20196;-79
2022/12/25 05:57:13;;;;;;;9.85;6.00;;;26.20;99.90;;;;;;4973924;28;20222;-80
2022/12/25 05:59:46;;;;;;;9.05;5.78;;;26.10;99.90;;;;;;4973645;28;20370;-81
2022/12/25 06:02:17;;;;;;;6.93;6.00;;;26.10;99.90;;;;;;4975779;28;20632;-79
2022/12/25 06:04:48;;;;;;;8.05;5.80;;;26.20;99.90;;;;;;4977358;28;20295;-78
2022/12/25 06:07:19;;;;;;;6.60;5.80;;;26.30;99.90;;;;;;4995949;28;20191;-77
2022/12/25 06:09:49;;;;;;;6.95;5.47;;;26.30;99.90;;;;;;4996991;28;20688;-79
2022/12/25 06:12:20;;;;;;;8.48;5.57;;;26.30;99.90;;;;;;4996842;28;20325;-80
2022/12/25 06:14:54;;;;;;;7.65;5.28;;;26.30;99.90;;;;;;4994269;28;20198;-76
2022/12/25 06:17:27;;;;;;;7.65;4.55;;;26.10;99.90;;;;;;4987608;28;20196;-78
2022/12/25 06:19:58;;;;;;;7.60;5.38;;;26.00;99.90;;;;;;4996458;28;20711;-77
2022/12/25 06:22:32;;;;;;;7.55;5.38;;;26.00;99.90;;;;;;4978097;28;20188;-79
2022/12/25 06:25:03;;;;;;;7.30;5.10;;;26.00;99.90;;;;;;4977076;28;20504;-78
2022/12/25 06:27:33;;;;;;;8.57;5.65;;;26.00;99.90;;;;;;4977145;28;20328;-79
2022/12/25 06:30:07;;;;;;;6.78;5.30;;;26.00;99.90;;;;;;4976991;28;20287;-79
2022/12/25 06:32:37;;;;;;;8.35;4.88;;;26.00;99.90;;;;;;4979158;28;20307;-76
2022/12/25 06:35:09;;;;;;;7.63;5.78;;;25.90;99.90;;;;;;4996096;28;20202;-79
2022/12/25 06:37:40;;;;;;;6.13;5.10;;;25.80;99.90;;;;;;4996339;28;20320;-82
2022/12/25 06:40:12;;;;;;;7.82;5.55;;;25.70;99.90;;;;;;4996359;28;20188;-81
2022/12/25 06:42:42;;;;;;;7.65;5.43;;;25.80;99.90;;;;;;4996559;28;20191;-79
2022/12/25 06:45:15;;;;;;;6.28;5.30;;;25.90;99.90;;;;;;4996155;28;20282;-79
2022/12/25 06:47:47;;;;;;;7.93;5.53;;;25.90;99.90;;;;;;4984833;28;20223;-79
2022/12/25 06:50:18;;;;;;;7.55;5.30;;;25.90;99.90;;;;;;4996077;28;20666;-79
2022/12/25 06:52:50;;;;;;;9.32;4.75;;;25.90;99.90;;;;;;4996183;28;20770;-80
2022/12/25 06:55:21;;;;;;;7.72;5.53;;;25.90;99.90;;;;;;4996224;28;20279;-78
2022/12/25 06:57:52;;;;;;;6.00;4.75;;;25.90;99.90;;;;;;4996118;28;20195;-79
2022/12/25 07:00:25;;;;;;;7.32;5.35;;;25.80;99.90;;;;;;4996539;28;20231;-78
2022/12/25 07:02:55;;;;;;;8.35;5.15;;;25.90;99.90;;;;;;4995966;28;20669;-78
2022/12/25 07:05:26;;;;;;;7.32;5.15;;;25.90;99.90;;;;;;4995601;28;20271;-78
2022/12/25 07:07:57;;;;;;;5.70;5.10;;;25.80;99.90;;;;;;4996009;28;20192;-79
2022/12/25 07:10:28;;;;;;;7.45;5.10;;;25.70;99.90;;;;;;4996269;28;20625;-80
2022/12/25 07:12:58;;;;;;;5.88;5.13;;;25.70;99.90;;;;;;4995281;28;20238;-79
2022/12/25 07:15:31;;;;;;;6.57;5.40;;;25.70;99.90;;;;;;4995874;28;20535;-79
2022/12/25 07:18:02;;;;;;;5.88;5.32;;;25.60;99.90;;;;;;4995971;28;20279;-79
2022/12/25 07:20:33;;;;;;;5.78;4.68;;;25.60;99.90;;;;;;4995455;28;20613;-78
2022/12/25 07:23:03;;;;;;;5.53;5.03;;;25.70;99.90;;;;;;4995886;28;20194;-80
2022/12/25 07:25:34;;;;;;;5.68;4.63;;;25.60;99.90;;;;;;4995636;28;20674;-78
2022/12/25 07:28:05;;;;;;;5.68;4.70;;;25.60;99.90;;;;;;4995764;28;20278;-78
2022/12/25 07:30:39;;;;;;;5.25;4.32;;;25.60;99.90;;;;;;4995573;28;20200;-78
2022/12/25 07:33:09;;;;;;;5.80;4.70;;;25.50;99.90;;;;;;4995277;28;20753;-78
2022/12/25 07:35:40;;;;;;;5.47;4.80;;;25.40;99.90;;;;;;4995549;28;20279;-77
2022/12/25 07:38:11;;;;;;;6.38;5.15;;;25.40;99.90;;;;;;4995522;28;20287;-78
2022/12/25 07:40:42;;;;;;;7.72;5.00;;;25.40;99.90;;;;;;4995363;28;20197;-77
2022/12/25 07:43:13;;;;;;;5.78;4.88;;;25.40;99.90;;;;;;4979672;28;20196;-77
2022/12/25 07:45:46;;;;;;;6.65;5.05;;;25.50;99.90;;;;;;4975653;28;20282;-76
2022/12/25 07:48:17;;;;;;;7.25;4.53;;;25.50;99.90;;;;;;4981881;28;20327;-79
2022/12/25 07:50:48;;;;;;;5.55;4.03;;;25.40;99.90;;;;;;4975723;28;20561;-77
2022/12/25 07:53:19;;;;;;;4.97;4.43;;;25.30;99.90;;;;;;4983528;28;20294;-77
2022/12/25 07:55:51;;;;;;;6.63;4.53;;;25.20;99.90;;;;;;4994770;28;20198;-77
2022/12/25 07:58:22;;;;;;;5.13;3.88;;;25.20;99.90;;;;;;4994898;28;20652;-76
2022/12/25 08:00:55;;;;;;;6.05;4.38;;;25.20;99.90;;;;;;4994765;28;20274;-77
2022/12/25 08:03:26;;;;;;;7.55;4.40;;;25.10;99.90;;;;;;4994613;28;20279;-77
2022/12/25 08:06:00;;;;;;;6.05;4.18;;;25.10;99.90;;;;;;4994642;28;20223;-76
2022/12/25 08:08:31;;;;;;;4.57;4.13;;;25.10;99.90;;;;;;4995103;28;20279;-77
2022/12/25 08:11:02;;;;;;;6.00;4.10;;;25.00;99.90;;;;;;4995137;28;20266;-77
2022/12/25 08:13:36;;;;;;;6.03;4.20;;;24.80;99.90;;;;;;4994520;28;20220;-76
2022/12/25 08:16:10;;;;;;;5.00;4.28;;;24.70;99.90;;;;;;4994459;28;20734;-78
2022/12/25 08:18:42;;;;;;;5.97;4.35;;;24.60;99.90;;;;;;4994704;28;20279;-78
2022/12/25 08:21:14;;;;;;;5.63;4.45;;;24.40;99.90;;;;;;4993817;28;20275;-77
2022/12/25 08:23:46;;;;;;;6.07;4.90;;;24.40;99.90;;;;;;4991863;28;20278;-77
2022/12/25 08:26:19;;;;;;;5.28;4.30;;;24.30;99.90;;;;;;4993070;28;20191;-76
2022/12/25 08:28:50;;;;;;;7.53;4.82;;;24.10;99.90;;;;;;4994139;28;20271;-77
2022/12/25 08:31:25;;;;;;;5.18;4.57;;;24.10;99.90;;;;;;4993441;28;20202;-77
2022/12/25 08:33:57;;;;;;;7.57;4.82;;;24.00;99.90;;;;;;4993644;28;20222;-78
2022/12/25 08:36:28;;;;;;;5.30;4.72;;;23.90;99.90;;;;;;4993919;28;20206;-78
2022/12/25 08:38:59;;;;;;;8.82;4.97;;;23.80;99.90;;;;;;4993978;28;20719;-78
2022/12/25 08:41:30;;;;;;;6.15;5.18;;;23.80;99.90;;;;;;4993837;28;20210;-78
2022/12/25 08:44:01;;;;;;;7.13;4.90;;;23.70;99.90;;;;;;4993761;28;20199;-78
2022/12/25 08:46:34;;;;;;;6.93;5.15;;;23.70;99.90;;;;;;4986075;28;20314;-78
2022/12/25 08:49:04;;;;;;;5.80;5.20;;;23.60;99.90;;;;;;4993878;28;20184;-77
2022/12/25 08:51:36;;;;;;;5.85;5.25;;;23.60;99.90;;;;;;4993432;28;20278;-77
2022/12/25 08:54:07;;;;;;;6.22;5.20;;;23.60;99.90;;;;;;4983003;28;20218;-78
2022/12/25 08:56:37;;;;;;;8.00;5.13;;;23.50;99.90;;;;;;4993521;28;20531;-77
2022/12/25 08:59:08;;;;;;;7.90;5.55;;;23.50;99.90;;;;;;4991256;28;20271;-77
2022/12/25 09:01:41;;;;;;;7.28;5.30;;;23.40;99.90;;;;;;4993390;28;20607;-77
2022/12/25 09:04:12;;;;;;;10.63;5.75;;;23.40;99.90;;;;;;4991776;28;20372;-77
2022/12/25 09:06:42;;;;;;;6.47;5.60;;;23.40;99.90;;;;;;4993222;28;20209;-78
2022/12/25 09:09:13;;;;;;;7.45;5.63;;;23.30;99.90;;;;;;4992686;28;20354;-78
2022/12/25 09:11:44;;;;;;;7.28;5.18;;;23.30;99.90;;;;;;4992405;28;20210;-76
2022/12/25 09:14:15;;;;;;;7.97;5.90;;;23.30;99.90;;;;;;4991029;28;20237;-77
2022/12/25 09:16:47;;;;;;;7.32;5.53;;;23.30;99.90;;;;;;4989839;28;20191;-77
2022/12/25 09:19:18;;;;;;;6.85;5.43;;;23.20;99.90;;;;;;4992885;28;20271;-76
2022/12/25 09:21:50;;;;;;;7.30;5.78;;;23.20;99.90;;;;;;4993439;28;20275;-76
2022/12/25 09:24:21;;;;;;;7.88;5.70;;;23.20;99.90;;;;;;4992850;28;20619;-78
2022/12/25 09:26:52;;;;;;;9.50;5.97;;;23.20;99.90;;;;;;4993216;28;20562;-77
2022/12/25 09:29:23;;;;;;;6.43;5.82;;;23.20;99.90;;;;;;4992940;28;20266;-77
2022/12/25 09:31:56;;;;;;;7.15;6.00;;;23.20;99.90;;;;;;4993355;28;20191;-76
2022/12/25 09:34:26;;;;;;;6.95;6.00;;;23.10;99.90;;;;;;4992556;28;20698;-77
2022/12/25 09:36:58;;;;;;;7.03;6.00;;;23.10;99.90;;;;;;4993910;28;20196;-76
2022/12/25 09:39:29;;;;;;;7.75;6.22;;;23.10;99.90;;;;;;4997384;28;20279;-76
2022/12/25 09:42:03;;;;;;;6.20;5.45;;;23.10;99.90;;;;;;4997141;28;20194;-76
2022/12/25 09:44:38;;;;;;;9.13;5.20;;;23.10;99.90;;;;;;4996259;28;20279;-77
2022/12/25 09:47:15;;;;;;;5.90;5.30;;;23.10;99.90;;;;;;4994069;28;20317;-76
2022/12/25 09:49:52;;;;;;;6.60;5.00;;;23.00;99.90;;;;;;4994479;28;20653;-77
2022/12/25 09:52:26;;;;;;;6.50;5.05;;;23.00;99.90;;;;;;4996785;28;20642;-77
2022/12/25 09:55:01;;;;;;;8.35;4.97;;;23.00;99.90;;;;;;4996765;28;20197;-77
2022/12/25 09:57:32;;;;;;;7.75;4.60;;;23.00;99.90;;;;;;4996191;28;20650;-76
2022/12/25 10:00:03;;;;;;;6.75;4.75;;;23.00;99.90;;;;;;4997009;28;20191;-77
2022/12/25 10:03:06;;;;;;;5.72;4.13;;;22.90;99.90;;;;;;4996653;28;20234;-76
2022/12/25 10:06:02;;;;;;;6.90;4.72;;;23.00;99.90;;;;;;4996806;28;20194;-76
2022/12/25 10:08:52;;;;;;;6.50;4.40;;;22.90;99.90;;;;;;4994506;28;20212;-76
2022/12/25 10:11:33;;;;;;;6.78;4.30;;;22.90;99.90;;;;;;4989027;28;20214;-76
2022/12/25 10:14:18;;;;;;;5.30;4.00;;;22.90;99.90;;;;;;4996835;28;20310;-76
2022/12/25 10:16:59;;;;;;;6.00;3.97;;;22.90;99.90;;;;;;4994343;28;20188;-76
2022/12/25 10:19:42;;;;;;;8.23;4.30;;;22.90;99.90;;;;;;4996927;28;20198;-77
2022/12/25 10:22:17;;;;;;;5.05;3.90;;;22.90;99.90;;;;;;4996553;28;20624;-76
2022/12/25 10:24:51;;;;;;;5.57;4.03;;;22.90;99.90;;;;;;4994166;28;20187;-77
2022/12/25 10:27:26;;;;;;;4.15;3.40;;;22.90;99.90;;;;;;4996420;28;20310;-76
2022/12/25 10:29:57;;;;;;;5.70;3.70;;;22.90;99.90;;;;;;4996657;28;20191;-76
2022/12/25 10:32:28;;;;;;;4.55;3.38;;;22.90;99.90;;;;;;4996417;28;20198;-76
2022/12/25 10:35:00;;;;;;;5.50;3.45;;;22.90;99.90;;;;;;4996730;28;20192;-78
2022/12/25 10:37:31;;;;;;;6.65;3.88;;;22.80;99.90;;;;;;4990875;28;20204;-77
2022/12/25 10:40:02;;;;;;;4.25;3.65;;;22.80;99.90;;;;;;4989483;28;20200;-76
2022/12/25 10:42:40;;;;;;;6.22;3.70;;;22.80;99.90;;;;;;4992137;28;20200;-77
2022/12/25 10:45:12;;;;;;;5.47;3.50;;;22.80;99.90;;;;;;4988845;28;20204;-75
2022/12/25 10:47:43;;;;;;;5.88;3.50;;;22.80;99.90;;;;;;4987414;28;20724;-77
2022/12/25 10:50:22;;;;;;;6.78;3.53;;;22.80;99.90;;;;;;4992013;28;20195;-79
2022/12/25 10:52:57;;;;;;;6.50;3.67;;;22.80;99.90;;;;;;4990777;28;20224;-76
2022/12/25 10:55:28;;;;;;;6.50;3.30;;;22.80;99.90;;;;;;4991827;28;20249;-75
2022/12/25 10:58:00;;;;;;;6.45;3.10;;;22.70;99.90;;;;;;4989510;28;20200;-77
2022/12/25 11:00:33;;;;;;;7.35;3.20;;;22.70;99.90;;;;;;4992325;28;20195;-79
2022/12/25 11:03:04;;;;;;;5.32;3.30;;;22.70;99.90;;;;;;4987304;28;20660;-75
2022/12/25 11:05:38;;;;;;;5.53;3.10;;;22.70;99.90;;;;;;4988783;28;20200;-77
2022/12/25 11:08:22;;;;;;;5.07;3.00;;;22.70;99.90;;;;;;4992699;28;20201;-79
2022/12/25 11:10:58;;;;;;;7.30;3.03;;;22.70;99.90;;;;;;4990105;28;20302;-76
2022/12/25 11:13:31;;;;;;;4.57;2.53;;;22.70;99.90;;;;;;4991814;28;20581;-79
2022/12/25 11:16:08;;;;;;;3.78;2.78;;;22.70;99.90;;;;;;4993906;28;20207;-75
2022/12/25 11:18:47;;;;;;;4.15;2.72;;;22.60;99.90;;;;;;4994120;28;20282;-79
2022/12/25 11:21:23;;;;;;;5.82;2.80;;;22.60;99.90;;;;;;4992593;28;20199;-77
2022/12/25 11:24:00;;;;;;;6.35;3.10;;;22.60;99.90;;;;;;4991915;28;20359;-75
2022/12/25 11:26:38;;;;;;;8.15;2.80;;;22.60;99.90;;;;;;4991662;28;20279;-75
2022/12/25 11:29:20;;;;;;;6.65;2.97;;;22.60;99.90;;;;;;4992827;28;20536;-75
2022/12/25 11:31:52;;;;;;;8.18;3.08;;;22.60;99.90;;;;;;4991398;28;20278;-75
2022/12/25 11:34:31;;;;;;;7.85;2.92;;;22.50;99.90;;;;;;4995304;28;20219;-75
2022/12/25 11:37:05;;;;;;;6.03;3.05;;;22.60;99.90;;;;;;4994951;28;20670;-75
2022/12/25 11:39:36;;;;;;;3.72;2.65;;;22.50;99.90;;;;;;4994350;28;20206;-75
2022/12/25 11:42:14;;;;;;;5.88;2.90;;;22.50;99.90;;;;;;4992626;28;20191;-75
2022/12/25 11:44:51;;;;;;;7.80;2.70;;;22.50;99.90;;;;;;4991901;28;20219;-75
2022/12/25 11:47:27;;;;;;;4.68;2.60;;;22.50;99.90;;;;;;4992403;28;20274;-74
2022/12/25 11:50:02;;;;;;;6.05;2.20;;;22.50;99.90;;;;;;4994285;28;20187;-74
2022/12/25 11:52:38;;;;;;;6.50;2.70;;;22.50;99.90;;;;;;4994103;28;20191;-77
2022/12/25 11:55:19;;;;;;;7.35;2.17;;;22.40;99.90;;;;;;4994868;28;20277;-75
2022/12/25 11:57:54;;;;;;;7.57;2.50;;;22.50;99.90;;;;;;4991876;28;20191;-76
2022/12/25 12:00:25;;;;;;;7.68;2.45;;;22.50;99.90;;;;;;4989341;28;20291;-75
2022/12/25 12:03:00;;;;;;;4.97;1.90;;;22.40;99.90;;;;;;4993845;28;20203;-75
2022/12/25 12:05:36;;;;;;;6.15;2.30;;;22.40;99.90;;;;;;4987479;28;20200;-76
2022/12/25 12:08:12;;;;;;;5.97;2.25;;;22.40;99.90;;;;;;4991552;28;20559;-77
2022/12/25 12:11:16;;;;;;;4.28;2.08;;;22.40;99.90;;;;;;4990659;28;20241;-79
2022/12/25 12:13:58;;;;;;;7.28;2.50;;;22.40;99.90;;;;;;4991915;28;20215;-75
2022/12/25 12:16:29;;;;;;;7.55;2.30;;;22.40;99.90;;;;;;4994316;28;20187;-75
2022/12/25 12:19:00;;;;;;;8.05;2.40;;;22.30;99.90;;;;;;4994991;28;20275;-77
2022/12/25 12:21:32;;;;;;;5.20;1.90;;;22.30;99.90;;;;;;4994285;28;20278;-75
2022/12/25 12:24:09;;;;;;;7.40;2.03;;;22.30;99.90;;;;;;4994512;28;20279;-75
2022/12/25 12:26:42;;;;;;;6.75;2.00;;;22.30;99.90;;;;;;4987076;28;20271;-75
2022/12/25 12:29:25;;;;;;;6.47;1.90;;;22.30;99.90;;;;;;4984479;28;20283;-75
2022/12/25 12:32:01;;;;;;;8.25;2.10;;;22.30;99.90;;;;;;4994481;28;20283;-76
2022/12/25 12:34:35;;;;;;;7.60;2.10;;;22.30;99.90;;;;;;4975189;28;20216;-75
2022/12/25 12:37:18;;;;;;;8.00;1.88;;;22.20;99.90;;;;;;4975096;28;20195;-75
2022/12/25 12:39:55;;;;;;;5.07;2.00;;;22.20;99.90;;;;;;4987574;28;20294;-75
2022/12/25 12:42:29;;;;;;;6.63;1.95;;;22.20;99.90;;;;;;4991777;28;20206;-75
2022/12/25 12:45:08;;;;;;;4.78;1.83;;;22.10;99.90;;;;;;4994320;28;20541;-76
2022/12/25 12:47:42;;;;;;;8.25;2.08;;;22.20;99.90;;;;;;4993723;28;20319;-75
2022/12/25 12:50:31;;;;;;;4.43;1.70;;;22.10;99.90;;;;;;4994744;28;20278;-77
2022/12/25 12:53:04;;;;;;;6.90;1.70;;;22.10;99.90;;;;;;4993902;28;20658;-77
2022/12/25 12:55:37;;;;;;;5.53;1.90;;;22.10;99.90;;;;;;4993944;28;20195;-77
2022/12/25 12:58:09;;;;;;;8.13;2.00;;;22.10;99.90;;;;;;4994085;28;20282;-76
2022/12/25 13:00:45;;;;;;;8.88;1.98;;;22.00;99.90;;;;;;4992956;28;20282;-75
2022/12/25 13:03:38;;;;;;;6.53;1.98;;;22.00;99.90;;;;;;4993014;28;20203;-76
2022/12/25 13:06:16;;;;;;;4.72;1.83;;;22.00;99.90;;;;;;4993792;28;20204;-76
2022/12/25 13:08:59;;;;;;;3.75;1.77;;;22.00;99.90;;;;;;4994107;28;20201;-75
2022/12/25 13:11:37;;;;;;;5.68;2.13;;;21.90;99.90;;;;;;4993554;28;20231;-76
2022/12/25 13:14:15;;;;;;;5.10;1.70;;;21.90;99.90;;;;;;4993720;28;20230;-76
2022/12/25 13:16:47;;;;;;;6.97;1.92;;;21.90;99.90;;;;;;4993859;28;20279;-77
2022/12/25 13:19:20;;;;;;;8.18;1.75;;;21.90;99.90;;;;;;4993997;28;20196;-78
2022/12/25 13:21:59;;;;;;;7.03;2.17;;;21.90;99.90;;;;;;4974425;28;20605;-76
2022/12/25 13:24:31;;;;;;;7.05;2.10;;;21.90;99.90;;;;;;4974409;28;20561;-78
2022/12/25 13:27:17;;;;;;;6.47;1.92;;;21.80;99.90;;;;;;4993094;28;20200;-77
2022/12/25 13:29:48;;;;;;;9.05;1.90;;;21.80;99.90;;;;;;4994068;28;20295;-79
2022/12/25 13:32:24;;;;;;;5.03;1.67;;;21.80;99.90;;;;;;4991837;28;20202;-79
2022/12/25 13:34:56;;;;;;;6.00;1.90;;;21.80;99.90;;;;;;4992662;28;20325;-77
2022/12/25 13:37:29;;;;;;;4.07;1.52;;;21.70;99.90;;;;;;4991910;28;20246;-78
2022/12/25 13:40:02;;;;;;;5.13;1.65;;;21.70;99.90;;;;;;4992799;28;20681;-80
2022/12/25 13:42:35;;;;;;;5.00;2.10;;;21.70;99.90;;;;;;4992779;28;20199;-75
2022/12/25 13:45:08;;;;;;;4.57;1.65;;;21.70;99.90;;;;;;4991224;28;20238;-77
2022/12/25 13:47:41;;;;;;;4.43;1.60;;;21.70;99.90;;;;;;4992582;28;20231;-76
2022/12/25 13:50:22;;;;;;;3.90;1.80;;;21.60;99.90;;;;;;4990149;28;20196;-77
2022/12/25 13:52:54;;;;;;;6.50;1.80;;;21.60;99.90;;;;;;4985836;28;20274;-77
2022/12/25 13:55:26;;;;;;;8.07;1.80;;;21.70;99.90;;;;;;4993448;28;20221;-76
2022/12/25 13:58:00;;;;;;;3.92;1.67;;;21.60;99.90;;;;;;4993722;28;20284;-77
2022/12/25 14:00:41;;;;;;;5.82;1.70;;;21.60;99.90;;;;;;4993475;28;20191;-77
2022/12/25 14:03:19;;;;;;;6.10;1.90;;;21.50;99.90;;;;;;4993627;28;20283;-77
2022/12/25 14:05:59;;;;;;;4.22;1.50;;;21.50;99.90;;;;;;4991747;28;20191;-79
2022/12/25 14:08:33;;;;;;;5.05;1.48;;;21.50;99.90;;;;;;4993300;28;20198;-79
2022/12/25 14:11:06;;;;;;;5.70;1.67;;;21.50;99.90;;;;;;4993580;28;20279;-76
2022/12/25 14:13:42;;;;;;;4.97;1.67;;;21.50;99.90;;;;;;4993294;28;20282;-77
2022/12/25 14:16:16;;;;;;;3.78;1.58;;;21.40;99.90;;;;;;4993566;28;20206;-76
2022/12/25 14:18:55;;;;;;;7.15;1.73;;;21.40;99.90;;;;;;4993189;28;20280;-76
2022/12/25 14:21:29;;;;;;;3.22;1.50;;;21.40;99.90;;;;;;4982937;28;20294;-78
2022/12/25 14:24:00;;;;;;;6.78;1.63;;;21.40;99.90;;;;;;4985149;28;20194;-77
2022/12/25 14:26:33;;;;;;;5.65;1.80;;;21.40;99.90;;;;;;4977540;28;20712;-76
2022/12/25 14:29:11;;;;;;;5.88;1.92;;;21.40;99.90;;;;;;4977566;28;20625;-77
2022/12/25 14:31:43;;;;;;;6.45;1.65;;;21.40;99.90;;;;;;4977477;28;20195;-76
2022/12/25 14:34:17;;;;;;;6.43;1.90;;;21.40;99.90;;;;;;4977169;28;20710;-77
2022/12/25 14:36:48;;;;;;;7.38;1.60;;;21.40;99.90;;;;;;4977323;28;20188;-78
2022/12/25 14:39:39;;;;;;;8.52;1.75;;;21.30;99.90;;;;;;4993634;28;20202;-77
2022/12/25 14:42:22;;;;;;;6.68;1.70;;;21.30;99.90;;;;;;4992093;28;20762;-77
2022/12/25 14:45:04;;;;;;;5.65;1.75;;;21.20;99.90;;;;;;4996521;28;20278;-77
2022/12/25 14:47:41;;;;;;;7.35;2.00;;;21.20;99.90;;;;;;4995756;28;20596;-78
2022/12/25 14:50:27;;;;;;;7.60;1.92;;;21.20;99.90;;;;;;4994701;28;20294;-76
2022/12/25 14:52:58;;;;;;;3.40;1.50;;;21.20;99.90;;;;;;4989773;28;20250;-75
2022/12/25 14:55:30;;;;;;;7.28;1.73;;;21.20;99.90;;;;;;4995246;28;20222;-80
2022/12/25 14:58:04;;;;;;;4.88;1.70;;;21.20;99.90;;;;;;4995660;28;20656;-76
2022/12/25 15:00:39;;;;;;;5.65;1.85;;;21.20;99.90;;;;;;4994804;28;20202;-77
2022/12/25 15:03:26;;;;;;;7.20;1.95;;;21.20;99.90;;;;;;4985178;28;20202;-76